createdAt,value
2023-05-08T00:01:57.190Z,96461.50
2023-05-08T00:12:03.698Z,96414.38
2023-05-08T00:22:10.201Z,96346.03
2023-05-08T00:32:16.807Z,96313.69
2023-05-08T00:42:23.534Z,96319.13
2023-05-08T00:52:31.611Z,96346.09
2023-05-08T01:02:38.479Z,96378.06
2023-05-08T01:13:11.039Z,96415.25
2023-05-08T01:24:00.342Z,96486.22
2023-05-08T01:34:11.980Z,96517.72
2023-05-08T01:44:22.914Z,96553.97
2023-05-08T01:54:32.025Z,96618.69
2023-05-08T02:04:38.791Z,96645.72
2023-05-08T02:14:47.697Z,96660.31
2023-05-08T02:24:57.028Z,96676.09
2023-05-08T02:35:03.984Z,96720.72
2023-05-08T02:45:11.392Z,96688.13
2023-05-08T02:55:38.968Z,96722.66
2023-05-08T03:05:51.010Z,96729.00
2023-05-08T03:16:00.397Z,96746.87
2023-05-08T03:26:06.118Z,96774.84
2023-05-08T03:36:12.715Z,96798.63
2023-05-08T03:46:19.659Z,96811.12
2023-05-08T03:56:26.363Z,96836.63
2023-05-08T04:06:49.917Z,96848.34
2023-05-08T04:17:03.282Z,96878.94
2023-05-08T04:27:11.078Z,96872.44
2023-05-08T04:37:32.692Z,96900.31
2023-05-08T04:47:39.242Z,96933.31
2023-05-08T04:57:45.956Z,96981.78
2023-05-08T05:07:52.515Z,96986.03
2023-05-08T05:17:59.225Z,97064.88
2023-05-08T05:28:05.944Z,97193.44
2023-05-08T05:38:12.578Z,97322.41
2023-05-08T05:48:19.061Z,97381.16
2023-05-08T05:58:25.598Z,97478.22
2023-05-08T06:08:32.157Z,97556.00
2023-05-08T06:18:38.734Z,97509.22
2023-05-08T06:28:45.219Z,97514.84
2023-05-08T06:38:51.692Z,97461.09
2023-05-08T06:48:58.377Z,97494.19
2023-05-08T06:59:08.905Z,97516.53
2023-05-08T07:09:15.716Z,97418.59
2023-05-08T07:19:22.757Z,97626.00
2023-05-08T07:29:29.567Z,97674.56
2023-05-08T07:39:36.200Z,97726.06
2023-05-08T07:49:42.673Z,97710.16
2023-05-08T07:59:49.162Z,97725.62
2023-05-08T08:09:55.700Z,97776.06
2023-05-08T08:20:02.364Z,97778.81
2023-05-08T08:30:17.576Z,97889.75
2023-05-08T08:40:26.117Z,97986.75
2023-05-08T08:50:36.908Z,97913.59
2023-05-08T09:00:44.012Z,98041.03
2023-05-08T09:10:51.169Z,97968.34
2023-05-08T09:20:58.599Z,98029.28
2023-05-08T09:31:05.222Z,98078.38
2023-05-08T09:41:13.919Z,98177.47
2023-05-08T09:51:21.062Z,98163.56
2023-05-08T10:01:33.345Z,98232.75
2023-05-08T10:11:44.240Z,98082.00
2023-05-08T10:21:52.675Z,98262.56
2023-05-08T10:32:00.506Z,98342.47
2023-05-08T10:42:07.136Z,98362.34
2023-05-08T10:52:20.775Z,98326.81
2023-05-08T11:02:32.911Z,98298.06
2023-05-08T11:12:40.208Z,98411.97
2023-05-08T11:22:49.792Z,98397.62
2023-05-08T11:33:05.597Z,98463.13
2023-05-08T11:43:34.971Z,98439.22
2023-05-08T11:53:41.593Z,98477.91
2023-05-08T12:03:48.124Z,98421.00
2023-05-08T12:13:55.678Z,98420.56
2023-05-08T12:24:02.212Z,98518.25
2023-05-08T12:34:10.132Z,98462.72
2023-05-08T12:44:27.395Z,98454.66
2023-05-08T12:54:38.723Z,98509.56
2023-05-08T13:04:46.782Z,98539.41
2023-05-08T13:14:53.432Z,98541.62
2023-05-08T13:24:59.975Z,98547.53
2023-05-08T13:35:07.049Z,98556.00
2023-05-08T13:45:15.943Z,98568.72
2023-05-08T13:55:23.972Z,98603.09
2023-05-08T14:05:30.462Z,98611.00
2023-05-08T14:15:37.900Z,98557.78
2023-05-08T14:25:44.507Z,98625.69
2023-05-08T14:35:50.962Z,98654.97
2023-05-08T14:45:57.622Z,98657.38
2023-05-08T14:56:05.247Z,98621.75
2023-05-08T15:06:11.967Z,98622.41
2023-05-08T15:16:18.478Z,98624.22
2023-05-08T15:26:25.013Z,98602.97
2023-05-08T15:36:32.851Z,98651.53
2023-05-08T15:46:39.311Z,98675.53
2023-05-08T15:56:45.868Z,98622.25
2023-05-08T16:06:52.355Z,98590.50
2023-05-08T16:16:59.048Z,98664.69
2023-05-08T16:37:35.496Z,98675.84
2023-05-08T16:47:49.254Z,98669.16
2023-05-08T16:58:02.388Z,98638.56
2023-05-08T17:08:22.205Z,98632.53
2023-05-08T17:18:35.217Z,98627.16
2023-05-08T17:28:48.214Z,98647.44
2023-05-08T17:39:00.238Z,98644.41
2023-05-08T17:49:13.248Z,98615.22
2023-05-08T17:59:27.259Z,98606.91
2023-05-08T18:09:47.245Z,98590.34
2023-05-08T18:20:00.295Z,98502.81
2023-05-08T18:30:14.459Z,98454.66
2023-05-08T18:40:27.297Z,98418.53
2023-05-08T18:50:40.274Z,98460.00
2023-05-08T19:00:53.373Z,98459.91
2023-05-08T19:11:13.308Z,98403.97
2023-05-08T19:21:26.335Z,98396.53
2023-05-08T19:31:39.362Z,98385.03
2023-05-08T19:41:52.317Z,98376.13
2023-05-08T19:52:05.295Z,98352.31
2023-05-08T20:02:18.317Z,98317.69
2023-05-08T20:12:31.338Z,98315.72
2023-05-08T20:22:45.362Z,98295.94
2023-05-08T20:32:58.413Z,98244.25
2023-05-08T20:43:11.350Z,98227.56
2023-05-08T20:53:24.373Z,98196.50
2023-05-08T21:03:37.452Z,98229.69
2023-05-08T21:13:53.384Z,98162.81
2023-05-08T21:24:06.442Z,98137.41
2023-05-08T21:34:20.401Z,98121.62
2023-05-08T21:44:33.411Z,98090.88
2023-05-08T21:54:46.410Z,98058.75
2023-05-08T22:04:59.497Z,98052.09
2023-05-08T22:15:25.693Z,98050.37
2023-05-08T22:25:42.433Z,98041.22
2023-05-08T22:35:55.456Z,98027.31
2023-05-08T22:46:08.532Z,98017.44
2023-05-08T22:56:21.436Z,98006.59
2023-05-08T23:06:41.466Z,98006.59
2023-05-08T23:16:54.465Z,98013.91
2023-05-08T23:27:07.494Z,98002.81
2023-05-08T23:37:20.471Z,97999.41
2023-05-08T23:47:33.528Z,97992.75
2023-05-08T23:57:46.488Z,97996.03
